Piracuruca, Brazil
Current Conditions -  °F | °C
As of 12:00 AM on Thursday 27 Nov 2014 (Local Time) from SBPB Reporting Station
Few Clouds Few Clouds  
Wind Chill: 81°   Ceiling: Unl
Heat Index: 85°   Visibility: 6mi
Dew Point: 73°   Wind: 16mph
Humidity: 79%   Direction: 110°ESE
Pressure: 29.83"   Gusts: NA
Location:  3.93°S, 41.71°W
Report Text: SBPB 270300Z 11014KT 9999 FEW020 27/23 Q1010
Loading
Personal Weather Stations






























Interactive Weather Map New forecast layout! Learn more

10-Day Weather Forecast

Advertisements
Track Severe Weather on mobile